Time;durP1;ratioP1;P1;durP2;ratioP2;P2;SDS_P1;SDS_P2;PMS_P1;PMS_P2;Temp;Humidity;BMP_temperature;BMP_pressure;BME280_temperature;BME280_humidity;BME280_pressure;Samples;Min_cycle;Max_cycle;Signal;HPM_P1;HPM_P2
2022/12/11 00:01:14;;;;;;;28.40;12.32;;;-3.90;99.90;;;;;;5074166;28;20115;-65
2022/12/11 00:03:40;;;;;;;25.10;12.70;;;-3.90;99.90;;;;;;5071972;28;20024;-64
2022/12/11 00:06:11;;;;;;;24.63;12.48;;;-3.90;99.90;;;;;;5059410;28;20116;-64
2022/12/11 00:08:37;;;;;;;27.48;12.55;;;-3.90;99.90;;;;;;5071705;28;20460;-65
2022/12/11 00:11:03;;;;;;;25.77;12.25;;;-4.00;99.90;;;;;;5078673;28;20050;-65
2022/12/11 00:13:29;;;;;;;27.05;12.93;;;-4.00;99.90;;;;;;5079837;28;20028;-64
2022/12/11 00:15:57;;;;;;;32.33;14.60;;;-4.10;99.90;;;;;;5070690;28;20025;-65
2022/12/11 00:18:23;;;;;;;26.05;12.32;;;-4.00;99.90;;;;;;5070945;28;20123;-65
2022/12/11 00:20:49;;;;;;;22.25;11.02;;;-4.00;99.90;;;;;;5070695;28;20103;-64
2022/12/11 00:23:15;;;;;;;24.80;11.98;;;-4.10;99.90;;;;;;5072552;28;20071;-65
2022/12/11 00:25:45;;;;;;;23.55;12.07;;;-4.10;99.90;;;;;;5072158;28;20353;-65
2022/12/11 00:28:18;;;;;;;25.58;11.85;;;-4.00;99.90;;;;;;5072646;28;20082;-65
2022/12/11 00:30:44;;;;;;;20.67;10.57;;;-4.00;99.90;;;;;;5075078;28;20050;-65
2022/12/11 00:33:12;;;;;;;18.40;9.75;;;-4.00;99.90;;;;;;5071320;28;20484;-64
2022/12/11 00:35:45;;;;;;;17.55;9.02;;;-4.10;99.90;;;;;;5070295;28;20101;-65
2022/12/11 00:38:20;;;;;;;19.95;10.82;;;-4.10;99.90;;;;;;5068038;28;20635;-65
2022/12/11 00:40:46;;;;;;;17.00;9.98;;;-4.10;99.90;;;;;;5069194;28;20025;-65
2022/12/11 00:43:12;;;;;;;20.95;9.98;;;-4.10;99.90;;;;;;5076061;28;20036;-65
2022/12/11 00:45:41;;;;;;;16.63;7.43;;;-4.10;99.90;;;;;;5069315;28;20506;-64
2022/12/11 00:48:07;;;;;;;16.52;7.82;;;-4.20;99.90;;;;;;5073576;28;20392;-66
2022/12/11 00:50:34;;;;;;;21.45;11.18;;;-4.30;99.90;;;;;;5076274;28;20127;-64
2022/12/11 00:53:00;;;;;;;25.60;12.15;;;-4.30;99.90;;;;;;5076723;28;20425;-64
2022/12/11 00:55:28;;;;;;;24.48;11.30;;;-4.20;99.90;;;;;;5069408;28;20044;-65
2022/12/11 00:57:54;;;;;;;19.45;8.75;;;-4.00;99.90;;;;;;5077156;28;20455;-66
2022/12/11 01:00:21;;;;;;;22.20;9.27;;;-4.00;99.90;;;;;;5071330;28;20032;-65
2022/12/11 01:02:48;;;;;;;16.83;9.38;;;-4.00;99.90;;;;;;5070188;28;20059;-65
2022/12/11 01:05:14;;;;;;;14.05;7.78;;;-4.10;99.90;;;;;;5084882;28;20567;-66
2022/12/11 01:07:39;;;;;;;15.23;7.10;;;-4.10;99.90;;;;;;5072118;28;20115;-65
2022/12/11 01:10:24;;;;;;;14.43;6.13;;;-4.10;99.90;;;;;;5082693;28;20020;-65
2022/12/11 01:12:50;;;;;;;8.73;5.63;;;-4.20;99.90;;;;;;5069737;28;20028;-65
2022/12/11 01:15:17;;;;;;;9.13;4.45;;;-4.20;99.90;;;;;;5072550;28;20021;-64
2022/12/11 01:17:43;;;;;;;13.10;7.45;;;-4.30;99.90;;;;;;5070930;28;20485;-64
2022/12/11 01:20:09;;;;;;;23.77;11.30;;;-4.40;99.90;;;;;;5072550;28;20093;-65
2022/12/11 01:22:35;;;;;;;20.92;10.85;;;-4.10;99.90;;;;;;5070670;28;20040;-65
2022/12/11 01:25:00;;;;;;;16.08;9.07;;;-4.00;99.90;;;;;;5063068;28;20025;-64
2022/12/11 01:27:26;;;;;;;16.75;7.93;;;-4.00;99.90;;;;;;5069877;28;20039;-64
2022/12/11 01:29:52;;;;;;;12.35;7.45;;;-4.00;99.90;;;;;;5072973;28;20028;-64
2022/12/11 01:32:17;;;;;;;16.38;7.97;;;-4.00;99.90;;;;;;5064444;28;20469;-64
2022/12/11 01:34:43;;;;;;;16.08;8.63;;;-4.10;99.90;;;;;;5070191;28;20115;-65
2022/12/11 01:37:09;;;;;;;19.67;9.55;;;-4.10;99.90;;;;;;5058149;28;20535;-65
2022/12/11 01:39:37;;;;;;;14.90;8.52;;;-4.00;99.90;;;;;;5071450;28;20465;-65
2022/12/11 01:42:05;;;;;;;13.20;6.47;;;-4.00;99.90;;;;;;5073372;28;20048;-64
2022/12/11 01:44:31;;;;;;;16.25;8.23;;;-4.00;99.90;;;;;;5072178;28;20033;-65
2022/12/11 01:46:57;;;;;;;17.67;8.90;;;-4.10;99.90;;;;;;5069543;28;20035;-65
2022/12/11 01:49:26;;;;;;;17.40;8.40;;;-4.10;99.90;;;;;;5066818;28;20480;-65
2022/12/11 01:52:01;;;;;;;11.43;6.60;;;-4.00;99.90;;;;;;5069696;28;20380;-64
2022/12/11 01:54:28;;;;;;;15.88;8.95;;;-4.00;99.90;;;;;;5071522;28;20503;-65
2022/12/11 01:56:59;;;;;;;17.70;9.32;;;-3.90;99.90;;;;;;5069271;28;20499;-64
2022/12/11 01:59:27;;;;;;;12.65;6.88;;;-3.80;99.90;;;;;;5071382;28;20040;-65
2022/12/11 02:02:11;;;;;;;10.63;7.05;;;-3.80;99.90;;;;;;5067883;28;20090;-64
2022/12/11 02:04:38;;;;;;;11.35;5.78;;;-3.80;99.90;;;;;;5068005;28;20041;-65
2022/12/11 02:07:04;;;;;;;16.85;7.28;;;-3.80;99.90;;;;;;5073465;28;20028;-65
2022/12/11 02:09:34;;;;;;;16.15;8.20;;;-3.80;99.90;;;;;;5057614;28;20488;-64
2022/12/11 02:12:23;;;;;;;18.80;9.23;;;-3.80;99.90;;;;;;5068567;28;20032;-65
2022/12/11 02:15:09;;;;;;;18.90;9.05;;;-3.90;99.90;;;;;;5062877;28;20111;-66
2022/12/11 02:17:52;;;;;;;13.63;7.50;;;-3.90;99.90;;;;;;5066159;28;20056;-65
2022/12/11 02:20:40;;;;;;;12.80;7.32;;;-3.90;99.90;;;;;;5071088;28;20495;-64
2022/12/11 02:23:31;;;;;;;12.27;6.18;;;-4.00;99.90;;;;;;5063021;28;20063;-64
2022/12/11 02:26:15;;;;;;;17.27;7.78;;;-3.90;99.90;;;;;;5074470;28;20485;-65
2022/12/11 02:28:53;;;;;;;10.60;5.32;;;-3.90;99.90;;;;;;5068017;28;20020;-65
2022/12/11 02:31:27;;;;;;;10.90;4.85;;;-3.90;99.90;;;;;;5070510;28;20056;-65
2022/12/11 02:33:53;;;;;;;14.45;7.78;;;-3.90;99.90;;;;;;5053087;28;20063;-65
2022/12/11 02:36:22;;;;;;;23.95;11.80;;;-3.90;99.90;;;;;;5070786;28;20033;-65
2022/12/11 02:38:50;;;;;;;22.35;12.88;;;-3.90;99.90;;;;;;5068871;28;20040;-65
2022/12/11 02:41:18;;;;;;;27.90;13.25;;;-4.00;99.90;;;;;;5070655;28;20059;-64
2022/12/11 02:43:45;;;;;;;23.08;12.30;;;-4.10;99.90;;;;;;5061396;28;20083;-64
2022/12/11 02:46:13;;;;;;;27.30;13.00;;;-4.20;99.90;;;;;;5064072;28;20039;-65
2022/12/11 02:48:39;;;;;;;25.98;13.07;;;-4.30;99.90;;;;;;5068569;28;20059;-66
2022/12/11 02:51:07;;;;;;;24.70;12.52;;;-4.40;99.90;;;;;;5071499;28;20025;-65
2022/12/11 02:53:36;;;;;;;22.23;12.20;;;-4.30;99.90;;;;;;5069910;28;20032;-65
2022/12/11 02:56:17;;;;;;;23.08;11.75;;;-4.40;99.90;;;;;;5070205;28;20119;-65
2022/12/11 02:58:56;;;;;;;26.90;12.38;;;-4.40;99.90;;;;;;5063029;28;20119;-64
2022/12/11 03:01:22;;;;;;;24.27;12.10;;;-4.40;99.90;;;;;;5070532;28;20033;-65
2022/12/11 03:03:48;;;;;;;27.63;12.63;;;-4.40;99.90;;;;;;5068452;28;20031;-66
2022/12/11 03:06:19;;;;;;;23.63;12.60;;;-4.40;99.90;;;;;;5063411;28;20025;-65
2022/12/11 03:08:44;;;;;;;26.75;12.73;;;-4.40;99.90;;;;;;5066813;28;20107;-65
2022/12/11 03:11:11;;;;;;;25.25;12.13;;;-4.40;99.90;;;;;;5070008;28;20498;-65
2022/12/11 03:13:40;;;;;;;27.38;11.98;;;-4.40;99.90;;;;;;5064041;28;20024;-64
2022/12/11 03:16:22;;;;;;;23.43;11.23;;;-4.40;99.90;;;;;;5063822;28;20032;-64
2022/12/11 03:19:03;;;;;;;19.27;10.70;;;-4.40;99.90;;;;;;5058454;28;20036;-65
2022/12/11 03:21:37;;;;;;;28.65;13.25;;;-4.40;99.90;;;;;;5069770;28;20021;-65
2022/12/11 03:24:19;;;;;;;30.15;14.57;;;-4.50;99.90;;;;;;5066614;28;20036;-65
2022/12/11 03:26:51;;;;;;;;;;;-4.60;99.90;;;;;;5067447;28;20021;-64
2022/12/11 03:29:20;;;;;;;28.77;12.23;;;-4.60;99.90;;;;;;5066194;28;19953;-65
2022/12/11 03:32:03;;;;;;;29.55;14.45;;;-4.70;99.90;;;;;;5076334;28;20088;-65
2022/12/11 03:34:52;;;;;;;24.52;12.65;;;-4.70;99.90;;;;;;5071574;28;20048;-64
2022/12/11 03:37:20;;;;;;;22.42;11.13;;;-4.80;99.90;;;;;;5064211;28;20078;-65
2022/12/11 03:39:50;;;;;;;25.40;11.82;;;-4.80;99.90;;;;;;5076057;28;20036;-65
2022/12/11 03:42:20;;;;;;;31.20;11.93;;;-4.80;99.90;;;;;;5070508;28;20388;-64
2022/12/11 03:44:49;;;;;;;20.08;10.20;;;-4.80;99.90;;;;;;5080649;28;20039;-65
2022/12/11 03:47:20;;;;;;;25.33;11.93;;;-4.80;99.90;;;;;;5071137;28;20092;-65
2022/12/11 03:49:47;;;;;;;23.48;12.10;;;-4.80;99.90;;;;;;5075820;28;20028;-65
2022/12/11 03:52:14;;;;;;;25.95;12.15;;;-4.70;99.90;;;;;;5083585;28;20099;-65
2022/12/11 03:54:42;;;;;;;25.83;11.13;;;-4.80;99.90;;;;;;5074984;28;20036;-65
2022/12/11 03:57:12;;;;;;;19.98;10.70;;;-4.70;99.90;;;;;;5077918;28;20095;-65
2022/12/11 03:59:38;;;;;;;22.58;11.00;;;-4.80;99.90;;;;;;5074651;28;20047;-66
2022/12/11 04:02:09;;;;;;;22.87;11.07;;;-4.90;99.90;;;;;;5075996;28;20025;-64
2022/12/11 04:04:40;;;;;;;19.67;11.67;;;-4.90;99.90;;;;;;5080944;28;20039;-65
2022/12/11 04:07:07;;;;;;;17.60;9.85;;;-4.90;99.90;;;;;;5075734;28;20111;-65
2022/12/11 04:09:33;;;;;;;24.10;12.32;;;-4.90;99.90;;;;;;5079594;28;20032;-65
2022/12/11 04:11:59;;;;;;;23.42;11.25;;;-4.90;99.90;;;;;;5073639;28;20027;-64
2022/12/11 04:17:10;;;;;;;22.13;11.50;;;-4.80;99.90;;;;;;5075402;28;20392;-64
2022/12/11 04:25:06;;;;;;;26.30;10.75;;;-4.60;99.90;;;;;;5066865;28;20093;-65
2022/12/11 04:27:47;;;;;;;19.33;10.27;;;-4.60;99.90;;;;;;5073789;28;20028;-66
2022/12/11 04:30:16;;;;;;;20.77;11.32;;;-4.60;99.90;;;;;;5066585;28;20021;-64
2022/12/11 04:32:44;;;;;;;20.17;10.63;;;-4.70;99.90;;;;;;5069180;28;20081;-65
2022/12/11 04:35:11;;;;;;;20.55;10.25;;;-4.80;99.90;;;;;;5073290;28;20033;-64
2022/12/11 04:37:37;;;;;;;21.02;11.52;;;-4.80;99.90;;;;;;5073160;28;20036;-65
2022/12/11 04:40:05;;;;;;;33.38;13.90;;;-5.00;99.90;;;;;;5070627;28;20408;-64
2022/12/11 04:42:30;;;;;;;21.15;11.40;;;-4.90;99.90;;;;;;5072479;28;20028;-65
2022/12/11 04:44:56;;;;;;;29.95;14.23;;;-4.90;99.90;;;;;;5071655;28;20032;-65
2022/12/11 04:47:22;;;;;;;29.63;13.98;;;-4.80;99.90;;;;;;5071985;28;20361;-65
2022/12/11 04:49:48;;;;;;;27.02;13.05;;;-4.70;99.90;;;;;;5071374;28;20043;-66
2022/12/11 04:52:13;;;;;;;23.92;12.38;;;-4.60;99.90;;;;;;5075455;28;20111;-66
2022/12/11 04:54:39;;;;;;;26.20;11.75;;;-4.60;99.90;;;;;;5065519;28;20041;-64
2022/12/11 04:57:05;;;;;;;28.85;14.68;;;-4.70;99.90;;;;;;5072530;28;20071;-65
2022/12/11 04:59:32;;;;;;;35.25;15.35;;;-4.80;99.90;;;;;;5072657;28;20044;-65
2022/12/11 05:01:57;;;;;;;29.67;12.98;;;-4.80;99.90;;;;;;5079484;28;20657;-65
2022/12/11 05:04:23;;;;;;;23.17;11.73;;;-4.80;99.90;;;;;;5071728;28;20029;-66
2022/12/11 05:06:49;;;;;;;30.45;13.00;;;-4.80;99.90;;;;;;5071311;28;20480;-66
2022/12/11 05:09:16;;;;;;;26.83;10.95;;;-4.80;99.90;;;;;;5072321;28;20059;-67
2022/12/11 05:11:41;;;;;;;28.73;14.10;;;-4.90;99.90;;;;;;5074451;28;20027;-64
2022/12/11 05:14:07;;;;;;;32.13;15.60;;;-4.90;99.90;;;;;;5075994;28;20020;-65
2022/12/11 05:16:33;;;;;;;34.97;14.93;;;-4.80;99.90;;;;;;5066242;28;20090;-66
2022/12/11 05:18:59;;;;;;;32.83;16.90;;;-4.90;99.90;;;;;;5075037;28;20025;-66
2022/12/11 05:21:24;;;;;;;35.58;15.95;;;-4.90;99.90;;;;;;5072424;28;20502;-65
2022/12/11 05:23:50;;;;;;;38.03;15.50;;;-4.90;99.90;;;;;;5070445;28;20039;-65
2022/12/11 05:26:18;;;;;;;23.17;11.48;;;-4.90;99.90;;;;;;5067014;28;20033;-65
2022/12/11 05:28:45;;;;;;;26.00;11.77;;;-4.90;99.90;;;;;;5061709;28;20109;-65
2022/12/11 05:31:16;;;;;;;35.88;14.80;;;-5.00;99.90;;;;;;5072708;28;20039;-66
2022/12/11 05:33:43;;;;;;;28.80;12.70;;;-4.90;99.90;;;;;;5070743;28;20037;-65
2022/12/11 05:36:17;;;;;;;24.23;11.93;;;-4.90;99.90;;;;;;5071361;28;20028;-65
2022/12/11 05:38:44;;;;;;;23.77;12.38;;;-5.00;99.90;;;;;;5070003;28;20516;-66
2022/12/11 05:41:13;;;;;;;23.38;12.13;;;-5.00;99.90;;;;;;5071451;28;20078;-66
2022/12/11 05:43:39;;;;;;;28.45;13.30;;;-5.00;99.90;;;;;;5070201;28;20114;-64
2022/12/11 05:46:11;;;;;;;34.13;15.13;;;-5.00;99.90;;;;;;5069265;28;20035;-64
2022/12/11 05:48:38;;;;;;;32.73;15.57;;;-4.80;99.90;;;;;;5067488;28;20439;-65
2022/12/11 05:51:05;;;;;;;37.00;15.07;;;-4.90;99.90;;;;;;5072647;28;20127;-66
2022/12/11 05:53:32;;;;;;;30.17;15.07;;;-4.90;99.90;;;;;;5071142;28;20027;-65
2022/12/11 05:56:05;;;;;;;27.70;14.07;;;-4.90;99.90;;;;;;5068062;28;20490;-65
2022/12/11 05:58:32;;;;;;;27.25;12.27;;;-4.90;99.90;;;;;;5071255;28;20040;-65
2022/12/11 06:00:58;;;;;;;24.95;10.90;;;-4.90;99.90;;;;;;5068735;28;20411;-65
2022/12/11 06:03:24;;;;;;;22.50;11.30;;;-5.00;99.90;;;;;;5070014;28;20028;-65
2022/12/11 06:05:50;;;;;;;27.10;13.82;;;-5.00;99.90;;;;;;5069426;28;20077;-65
2022/12/11 06:08:16;;;;;;;27.00;14.70;;;-4.90;99.90;;;;;;5071315;28;20119;-66
2022/12/11 06:10:49;;;;;;;27.90;14.40;;;-4.90;99.90;;;;;;5072097;28;20020;-65
2022/12/11 06:13:15;;;;;;;26.02;13.35;;;-4.90;99.90;;;;;;5070151;28;20082;-65
2022/12/11 06:15:41;;;;;;;23.80;11.60;;;-4.90;99.90;;;;;;5066620;28;20480;-65
2022/12/11 06:18:07;;;;;;;26.97;13.27;;;-4.90;99.90;;;;;;5075629;28;20387;-65
2022/12/11 06:20:34;;;;;;;26.38;14.10;;;-5.00;99.90;;;;;;5070954;28;20029;-65
2022/12/11 06:23:00;;;;;;;33.13;15.60;;;-5.00;99.90;;;;;;5069248;28;20468;-65
2022/12/11 06:25:26;;;;;;;35.17;16.25;;;-5.00;99.90;;;;;;5073017;28;20537;-65
2022/12/11 06:27:53;;;;;;;33.80;16.33;;;-5.00;99.90;;;;;;5071380;28;20036;-65
2022/12/11 06:30:19;;;;;;;43.57;17.47;;;-5.00;99.90;;;;;;5072879;28;20029;-65
2022/12/11 06:32:44;;;;;;;37.70;15.48;;;-5.00;99.90;;;;;;5068911;28;20039;-64
2022/12/11 06:35:11;;;;;;;36.40;16.27;;;-5.00;99.90;;;;;;5070699;28;20082;-65
2022/12/11 06:37:37;;;;;;;25.70;13.88;;;-5.00;99.90;;;;;;5066639;28;20554;-66
2022/12/11 06:40:04;;;;;;;27.97;14.03;;;-5.10;99.90;;;;;;5070800;28;20045;-66
2022/12/11 06:42:30;;;;;;;31.58;13.63;;;-5.10;99.90;;;;;;5066633;28;20036;-65
2022/12/11 06:44:58;;;;;;;32.65;14.02;;;-5.20;99.90;;;;;;5068327;28;20047;-65
2022/12/11 06:47:26;;;;;;;30.53;15.50;;;-5.20;99.90;;;;;;5070592;28;20036;-65
2022/12/11 06:49:52;;;;;;;40.17;15.75;;;-5.10;99.90;;;;;;5068828;28;20028;-64
2022/12/11 06:52:19;;;;;;;34.88;16.60;;;-5.10;99.90;;;;;;5070453;28;20404;-64
2022/12/11 06:54:45;;;;;;;39.70;16.33;;;-5.00;99.90;;;;;;5069141;28;20037;-65
2022/12/11 06:57:11;;;;;;;34.65;16.55;;;-5.00;99.90;;;;;;5067785;28;20025;-65
2022/12/11 06:59:37;;;;;;;40.47;18.88;;;-5.00;99.90;;;;;;5066684;28;20037;-65
2022/12/11 07:02:03;;;;;;;37.47;16.73;;;-5.00;99.90;;;;;;5060866;28;20025;-64
2022/12/11 07:04:29;;;;;;;38.65;15.90;;;-5.00;99.90;;;;;;5074859;28;20048;-66
2022/12/11 07:06:56;;;;;;;36.50;16.45;;;-5.00;99.90;;;;;;5072606;28;20029;-65
2022/12/11 07:09:22;;;;;;;36.90;16.10;;;-5.00;99.90;;;;;;5077160;28;20051;-65
2022/12/11 07:11:49;;;;;;;36.20;15.55;;;-4.90;99.90;;;;;;5076010;28;20025;-65
2022/12/11 07:14:15;;;;;;;32.03;16.10;;;-4.90;99.90;;;;;;5074887;28;20059;-64
2022/12/11 07:16:41;;;;;;;33.60;15.57;;;-4.90;99.90;;;;;;5066512;28;20028;-65
2022/12/11 07:19:07;;;;;;;32.63;14.53;;;-5.00;99.90;;;;;;5075870;28;20044;-68
2022/12/11 07:21:33;;;;;;;27.77;13.00;;;-5.00;99.90;;;;;;5071462;28;20392;-65
2022/12/11 07:23:58;;;;;;;35.70;15.43;;;-5.00;99.90;;;;;;5071570;28;20518;-65
2022/12/11 07:26:24;;;;;;;35.07;16.20;;;-5.00;99.90;;;;;;5074996;28;20384;-65
2022/12/11 07:28:50;;;;;;;34.33;15.75;;;-4.90;99.90;;;;;;5071464;28;20032;-65
2022/12/11 07:31:20;;;;;;;33.13;15.82;;;-4.90;99.90;;;;;;5069362;28;20043;-65
2022/12/11 07:33:46;;;;;;;36.63;15.50;;;-4.90;99.90;;;;;;5064964;28;20024;-64
2022/12/11 07:36:13;;;;;;;30.35;15.70;;;-4.90;99.90;;;;;;5068125;28;20060;-64
2022/12/11 07:38:40;;;;;;;27.97;13.53;;;-4.80;99.90;;;;;;5063578;28;20086;-66
2022/12/11 07:41:09;;;;;;;28.03;14.30;;;-4.80;99.90;;;;;;5069359;28;20028;-64
2022/12/11 07:43:35;;;;;;;32.67;14.70;;;-4.80;99.90;;;;;;5070227;28;20028;-64
2022/12/11 07:46:06;;;;;;;36.17;16.63;;;-4.80;99.90;;;;;;5068596;28;20162;-63
2022/12/11 07:48:35;;;;;;;35.60;15.90;;;-4.80;99.90;;;;;;5070322;28;20024;-65
2022/12/11 07:51:17;;;;;;;34.47;15.40;;;-4.70;99.90;;;;;;5067177;28;20121;-65
2022/12/11 07:53:44;;;;;;;27.80;13.70;;;-4.70;99.90;;;;;;5074180;28;20115;-64
2022/12/11 07:56:10;;;;;;;27.95;13.50;;;-4.80;99.90;;;;;;5075201;28;20032;-64
2022/12/11 07:58:37;;;;;;;31.10;13.77;;;-4.80;99.90;;;;;;5071365;28;20040;-64
2022/12/11 08:01:12;;;;;;;28.02;14.02;;;-4.80;99.90;;;;;;5066293;28;20075;-63
2022/12/11 08:03:38;;;;;;;33.80;14.53;;;-4.70;99.90;;;;;;5071670;28;20040;-62
2022/12/11 08:06:04;;;;;;;33.33;15.00;;;-4.60;99.90;;;;;;5069893;28;20437;-64
2022/12/11 08:08:30;;;;;;;34.95;15.02;;;-4.60;99.90;;;;;;5069343;28;20532;-64
2022/12/11 08:11:00;;;;;;;27.10;13.53;;;-4.70;99.90;;;;;;5069925;28;20033;-63
2022/12/11 08:13:26;;;;;;;29.60;14.23;;;-4.60;99.90;;;;;;5067593;28;20050;-64
2022/12/11 08:15:52;;;;;;;29.50;14.02;;;-4.70;99.90;;;;;;5063452;28;20028;-65
2022/12/11 08:18:17;;;;;;;30.40;13.98;;;-4.70;99.90;;;;;;5065997;28;20037;-64
2022/12/11 08:20:43;;;;;;;27.13;13.90;;;-4.60;99.90;;;;;;5070672;28;20133;-64
2022/12/11 08:23:09;;;;;;;32.95;16.30;;;-4.60;99.90;;;;;;5073311;28;20052;-63
2022/12/11 08:25:35;;;;;;;39.80;17.60;;;-4.60;99.90;;;;;;5072782;28;20032;-64
2022/12/11 08:28:01;;;;;;;32.72;17.48;;;-4.60;99.90;;;;;;5064467;28;20492;-64
2022/12/11 08:30:27;;;;;;;34.75;16.88;;;-4.50;99.90;;;;;;5066843;28;20303;-64
2022/12/11 08:32:52;;;;;;;34.42;17.52;;;-4.50;99.90;;;;;;5070596;28;20036;-65
2022/12/11 08:35:18;;;;;;;38.55;16.30;;;-4.50;99.90;;;;;;5072551;28;20044;-64
2022/12/11 08:37:44;;;;;;;39.10;16.83;;;-4.50;99.90;;;;;;5069403;28;20028;-64
2022/12/11 08:40:11;;;;;;;35.17;17.10;;;-4.40;99.90;;;;;;5072777;28;20515;-65
2022/12/11 08:42:37;;;;;;;38.03;17.00;;;-4.30;99.90;;;;;;5072195;28;20103;-65
2022/12/11 08:45:03;;;;;;;39.88;17.95;;;-4.20;99.90;;;;;;5066009;28;20072;-64
2022/12/11 08:47:29;;;;;;;29.33;13.30;;;-4.10;99.90;;;;;;5068512;28;20032;-64
2022/12/11 08:49:55;;;;;;;30.70;14.75;;;-4.00;99.90;;;;;;5073542;28;20039;-65
2022/12/11 08:52:21;;;;;;;37.83;16.15;;;-3.90;99.90;;;;;;5068355;28;20028;-63
2022/12/11 08:54:47;;;;;;;39.70;16.85;;;-3.90;99.90;;;;;;5067057;28;20055;-64
2022/12/11 08:57:13;;;;;;;35.65;17.60;;;-3.80;99.90;;;;;;5072079;28;20032;-64
2022/12/11 08:59:39;;;;;;;36.33;17.08;;;-3.70;99.90;;;;;;5071022;28;20530;-64
2022/12/11 09:02:05;;;;;;;34.13;16.55;;;-3.70;99.90;;;;;;5071281;28;20033;-64
2022/12/11 09:04:31;;;;;;;37.25;16.92;;;-3.60;99.90;;;;;;5071075;28;20468;-63
2022/12/11 09:06:57;;;;;;;34.67;16.20;;;-3.60;99.90;;;;;;5067885;28;20021;-64
2022/12/11 09:09:23;;;;;;;32.63;15.55;;;-3.50;99.90;;;;;;5064221;28;20048;-63
2022/12/11 09:11:49;;;;;;;33.35;16.23;;;-3.50;99.90;;;;;;5066279;28;20376;-64
2022/12/11 09:14:15;;;;;;;34.22;16.23;;;-3.40;99.90;;;;;;5065462;28;20040;-64
2022/12/11 09:16:41;;;;;;;34.60;16.30;;;-3.30;99.90;;;;;;5076537;28;20070;-63
2022/12/11 09:19:12;;;;;;;31.90;16.30;;;-3.30;99.90;;;;;;5080067;28;20155;-63
2022/12/11 09:21:39;;;;;;;25.05;12.20;;;-3.30;99.90;;;;;;5066484;28;20052;-64
2022/12/11 09:24:05;;;;;;;30.50;14.43;;;-3.20;99.90;;;;;;5057432;28;20056;-64
2022/12/11 09:26:31;;;;;;;32.20;15.85;;;-3.20;99.90;;;;;;5077419;28;20051;-64
2022/12/11 09:28:57;;;;;;;27.65;15.43;;;-3.20;99.90;;;;;;5073515;28;20372;-64
2022/12/11 09:31:28;;;;;;;28.25;14.93;;;-3.10;99.90;;;;;;5071517;28;20395;-64
2022/12/11 09:33:56;;;;;;;29.70;15.30;;;-3.00;99.90;;;;;;5070207;28;20475;-65
2022/12/11 09:36:22;;;;;;;28.23;14.50;;;-2.90;99.90;;;;;;5066583;28;20123;-64
2022/12/11 09:38:49;;;;;;;27.95;13.35;;;-2.80;99.90;;;;;;5072410;28;20119;-64
2022/12/11 09:41:21;;;;;;;27.63;13.68;;;-2.60;99.90;;;;;;5080870;28;20024;-63
2022/12/11 09:44:10;;;;;;;21.90;11.65;;;-2.50;99.90;;;;;;5076688;28;20134;-64
2022/12/11 09:46:37;;;;;;;20.33;11.93;;;-2.40;99.90;;;;;;5073291;28;20555;-63
2022/12/11 09:49:10;;;;;;;26.95;12.70;;;-2.20;99.90;;;;;;5067449;28;20025;-65
2022/12/11 09:51:48;;;;;;;22.40;12.15;;;-2.10;99.90;;;;;;5067696;28;20021;-63
2022/12/11 09:54:14;;;;;;;28.42;12.88;;;-2.00;99.90;;;;;;5062129;28;20064;-65
2022/12/11 09:57:09;;;;;;;27.02;12.80;;;-1.90;99.90;;;;;;5061635;28;20048;-63
2022/12/11 09:59:50;;;;;;;27.55;13.73;;;-1.80;99.90;;;;;;5067050;28;20047;-62
2022/12/11 10:02:35;;;;;;;21.93;12.77;;;-1.70;99.90;;;;;;5061988;28;20040;-64
2022/12/11 10:05:37;;;;;;;21.52;12.40;;;-1.60;99.90;;;;;;5055066;28;20036;-63
2022/12/11 10:08:41;;;;;;;23.95;12.57;;;-1.50;99.90;;;;;;5062915;28;20119;-64
2022/12/11 10:11:29;;;;;;;23.02;12.63;;;-1.30;99.90;;;;;;5067144;28;20054;-67
2022/12/11 10:14:00;;;;;;;23.30;12.77;;;-1.20;99.90;;;;;;5057100;28;20021;-66
2022/12/11 10:16:37;;;;;;;24.77;13.38;;;-1.10;99.90;;;;;;5062373;28;20029;-71
2022/12/11 10:19:04;;;;;;;23.50;11.70;;;-1.00;99.90;;;;;;5061340;28;20032;-66
2022/12/11 10:21:39;;;;;;;24.35;13.02;;;-0.90;99.90;;;;;;5071838;28;20044;-65
2022/12/11 10:24:16;;;;;;;24.17;13.15;;;-0.90;99.90;;;;;;5071172;28;20518;-66
2022/12/11 10:26:42;;;;;;;24.10;13.13;;;-0.90;99.90;;;;;;5071197;28;20024;-66
2022/12/11 10:29:14;;;;;;;21.23;11.77;;;-0.80;99.90;;;;;;5066782;28;20023;-67
2022/12/11 10:31:47;;;;;;;24.75;12.38;;;-0.80;99.90;;;;;;5066238;28;20417;-63
2022/12/11 10:34:34;;;;;;;22.40;12.15;;;-0.80;99.90;;;;;;5080378;28;20032;-66
2022/12/11 10:37:01;;;;;;;22.75;12.05;;;-0.70;99.90;;;;;;5064976;28;20023;-65
2022/12/11 10:39:27;;;;;;;21.25;12.10;;;-0.70;99.90;;;;;;5068394;28;20074;-64
2022/12/11 10:41:54;;;;;;;22.27;12.40;;;-0.70;99.90;;;;;;5062146;28;20032;-65
2022/12/11 10:44:28;;;;;;;18.85;11.23;;;-0.70;99.90;;;;;;5075250;28;20525;-67
2022/12/11 10:47:10;;;;;;;19.25;12.00;;;-0.60;99.90;;;;;;5059167;28;20099;-65
2022/12/11 10:49:37;;;;;;;20.60;11.98;;;-0.60;99.90;;;;;;5072338;28;20134;-65
2022/12/11 10:52:18;;;;;;;26.92;13.65;;;-0.50;99.90;;;;;;5067225;28;20028;-66
2022/12/11 10:54:53;;;;;;;24.02;14.30;;;-0.50;99.90;;;;;;5073224;28;20032;-65
2022/12/11 10:57:30;;;;;;;24.90;13.55;;;-0.40;99.90;;;;;;5071392;28;20515;-66
2022/12/11 10:59:56;;;;;;;27.50;13.95;;;-0.40;99.90;;;;;;5077447;28;20134;-66
2022/12/11 11:02:27;;;;;;;27.77;15.25;;;-0.30;99.90;;;;;;5080633;28;20029;-67
2022/12/11 11:04:56;;;;;;;17.48;9.68;;;-0.30;99.90;;;;;;5072754;28;20043;-67
2022/12/11 11:07:25;;;;;;;22.42;12.95;;;-0.20;99.90;;;;;;5072299;28;20029;-66
2022/12/11 11:10:11;;;;;;;24.10;12.25;;;-0.20;99.90;;;;;;5071418;28;20085;-65
2022/12/11 11:12:46;;;;;;;27.55;13.48;;;-0.10;99.90;;;;;;5070274;28;20021;-66
2022/12/11 11:15:21;;;;;;;20.88;12.52;;;-0.10;99.90;;;;;;5066140;28;20396;-65
2022/12/11 11:17:56;;;;;;;30.65;16.10;;;0.00;99.90;;;;;;5060908;28;20029;-66
2022/12/11 11:20:25;;;;;;;29.63;16.02;;;0.00;99.90;;;;;;5063834;28;20041;-65
2022/12/11 11:22:54;;;;;;;23.95;12.80;;;0.00;99.90;;;;;;5067421;28;20044;-65
2022/12/11 11:25:23;;;;;;;20.38;10.68;;;0.10;99.90;;;;;;5059627;28;20120;-66
2022/12/11 11:28:00;;;;;;;26.50;10.23;;;0.20;99.90;;;;;;5067343;28;20060;-66
2022/12/11 11:30:37;;;;;;;17.05;10.02;;;0.20;99.90;;;;;;5069524;28;20035;-65
2022/12/11 11:33:16;;;;;;;16.20;9.25;;;0.30;99.90;;;;;;5061348;28;20038;-66
2022/12/11 11:35:52;;;;;;;17.20;8.70;;;0.40;99.90;;;;;;5066084;28;20025;-66
2022/12/11 11:38:21;;;;;;;15.15;8.93;;;0.50;99.90;;;;;;5057827;28;20025;-65
2022/12/11 11:41:17;;;;;;;13.57;8.27;;;0.60;99.90;;;;;;5066244;28;20024;-65
2022/12/11 11:43:45;;;;;;;17.58;8.70;;;0.60;99.90;;;;;;5066877;28;20021;-65
2022/12/11 11:46:19;;;;;;;14.13;8.57;;;0.60;99.90;;;;;;5069163;28;20033;-66
2022/12/11 11:48:57;;;;;;;14.23;8.80;;;0.60;99.90;;;;;;5064185;28;20051;-66
2022/12/11 11:51:41;;;;;;;17.15;9.00;;;0.60;99.90;;;;;;5067725;28;20385;-66
2022/12/11 11:54:27;;;;;;;18.67;9.50;;;0.60;99.90;;;;;;5068212;28;20103;-66
2022/12/11 11:56:56;;;;;;;20.08;9.98;;;0.60;99.90;;;;;;5067226;28;20044;-65
2022/12/11 11:59:32;;;;;;;18.35;10.10;;;0.60;99.90;;;;;;5055226;28;20396;-67
2022/12/11 12:01:58;;;;;;;17.52;9.93;;;0.60;99.90;;;;;;5067572;28;20034;-66
2022/12/11 12:04:34;;;;;;;18.48;9.90;;;0.60;99.90;;;;;;5068994;28;20055;-67
2022/12/11 12:07:20;;;;;;;18.92;10.30;;;0.60;99.90;;;;;;5060480;28;20052;-65
2022/12/11 12:09:47;;;;;;;18.90;10.20;;;0.60;99.90;;;;;;5058530;28;20064;-65
2022/12/11 12:12:25;;;;;;;16.65;10.85;;;0.70;99.90;;;;;;5069282;28;20086;-65
2022/12/11 12:15:19;;;;;;;18.67;11.60;;;0.80;99.90;;;;;;5055023;28;20036;-66
2022/12/11 12:17:57;;;;;;;19.73;10.80;;;0.80;99.90;;;;;;5018552;28;20524;-66
2022/12/11 12:20:44;;;;;;;15.15;10.10;;;0.90;99.90;;;;;;5026780;28;20088;-65
2022/12/11 12:23:51;;;;;;;18.00;10.95;;;1.00;99.90;;;;;;5026676;28;20402;-67
2022/12/11 12:26:32;;;;;;;16.75;10.63;;;1.10;99.90;;;;;;5019483;28;20120;-65
2022/12/11 12:29:13;;;;;;;16.85;10.13;;;1.20;99.90;;;;;;5026059;28;20042;-66
2022/12/11 12:31:39;;;;;;;16.02;10.23;;;1.20;99.90;;;;;;5027358;28;20041;-65
2022/12/11 12:34:19;;;;;;;22.17;12.23;;;1.20;99.90;;;;;;5027554;28;20026;-66
2022/12/11 12:36:50;;;;;;;21.05;12.18;;;1.30;99.90;;;;;;5024389;28;20029;-66
2022/12/11 12:39:49;;;;;;;22.63;11.82;;;1.40;99.90;;;;;;5026757;28;20030;-66
2022/12/11 12:42:37;;;;;;;22.60;11.40;;;1.50;99.90;;;;;;5026254;28;20050;-65
2022/12/11 12:45:12;;;;;;;20.17;11.43;;;1.60;99.90;;;;;;5018744;28;20132;-66
2022/12/11 12:47:40;;;;;;;18.60;10.90;;;1.60;99.90;;;;;;5026121;28;20350;-65
2022/12/11 12:50:15;;;;;;;14.57;8.80;;;1.60;99.90;;;;;;5026401;28;20038;-66
2022/12/11 12:52:41;;;;;;;14.52;9.23;;;1.60;99.90;;;;;;5024755;28;20075;-66
2022/12/11 12:55:13;;;;;;;19.25;10.50;;;1.50;99.90;;;;;;5055748;28;20075;-66